sensor_id;sensor_type;location;lat;lon;timestamp;temperature;humidity
22940;DHT22;11636;52.086;5.090;2024-01-06T00:01:49;5.60;99.90
22940;DHT22;11636;52.086;5.090;2024-01-06T00:04:16;5.60;99.90
22940;DHT22;11636;52.086;5.090;2024-01-06T00:06:49;5.60;99.90
22940;DHT22;11636;52.086;5.090;2024-01-06T00:09:17;5.60;99.90
22940;DHT22;11636;52.086;5.090;2024-01-06T00:11:49;5.60;99.90
22940;DHT22;11636;52.086;5.090;2024-01-06T00:14:16;5.50;99.90
22940;DHT22;11636;52.086;5.090;2024-01-06T00:16:43;5.50;99.90
22940;DHT22;11636;52.086;5.090;2024-01-06T00:19:16;5.50;99.90
22940;DHT22;11636;52.086;5.090;2024-01-06T00:21:51;5.50;99.90
22940;DHT22;11636;52.086;5.090;2024-01-06T00:24:17;5.50;99.90
22940;DHT22;11636;52.086;5.090;2024-01-06T00:26:50;5.40;99.90
22940;DHT22;11636;52.086;5.090;2024-01-06T00:29:17;5.40;99.90
22940;DHT22;11636;52.086;5.090;2024-01-06T00:31:44;5.40;99.90
22940;DHT22;11636;52.086;5.090;2024-01-06T00:34:17;5.40;99.90
22940;DHT22;11636;52.086;5.090;2024-01-06T00:36:44;5.30;99.90
22940;DHT22;11636;52.086;5.090;2024-01-06T00:39:11;5.30;99.90
22940;DHT22;11636;52.086;5.090;2024-01-06T00:41:44;5.30;99.90
22940;DHT22;11636;52.086;5.090;2024-01-06T00:44:17;5.30;99.90
22940;DHT22;11636;52.086;5.090;2024-01-06T00:46:45;5.30;99.90
22940;DHT22;11636;52.086;5.090;2024-01-06T00:49:11;5.30;99.90
22940;DHT22;11636;52.086;5.090;2024-01-06T00:51:45;5.30;99.90
22940;DHT22;11636;52.086;5.090;2024-01-06T00:54:12;5.20;99.90
22940;DHT22;11636;52.086;5.090;2024-01-06T00:56:44;5.30;99.90
22940;DHT22;11636;52.086;5.090;2024-01-06T00:59:11;5.30;99.90
22940;DHT22;11636;52.086;5.090;2024-01-06T01:01:38;5.20;99.90
22940;DHT22;11636;52.086;5.090;2024-01-06T01:04:12;5.20;99.90
22940;DHT22;11636;52.086;5.090;2024-01-06T01:06:45;5.20;99.90
22940;DHT22;11636;52.086;5.090;2024-01-06T01:09:12;5.20;99.90
22940;DHT22;11636;52.086;5.090;2024-01-06T01:11:46;5.20;99.90
22940;DHT22;11636;52.086;5.090;2024-01-06T01:14:20;5.20;99.90
22940;DHT22;11636;52.086;5.090;2024-01-06T01:16:53;5.20;99.90
22940;DHT22;11636;52.086;5.090;2024-01-06T01:19:20;5.20;99.90
22940;DHT22;11636;52.086;5.090;2024-01-06T01:21:47;5.20;99.90
22940;DHT22;11636;52.086;5.090;2024-01-06T01:24:23;5.10;99.90
22940;DHT22;11636;52.086;5.090;2024-01-06T01:26:50;5.10;99.90
22940;DHT22;11636;52.086;5.090;2024-01-06T01:29:23;5.20;99.90
22940;DHT22;11636;52.086;5.090;2024-01-06T01:31:51;5.20;99.90
22940;DHT22;11636;52.086;5.090;2024-01-06T01:34:24;5.20;99.90
22940;DHT22;11636;52.086;5.090;2024-01-06T01:36:51;5.20;99.90
22940;DHT22;11636;52.086;5.090;2024-01-06T01:39:23;5.20;99.90
22940;DHT22;11636;52.086;5.090;2024-01-06T01:41:50;5.20;99.90
22940;DHT22;11636;52.086;5.090;2024-01-06T01:44:23;5.20;99.90
22940;DHT22;11636;52.086;5.090;2024-01-06T01:46:50;5.20;99.90
22940;DHT22;11636;52.086;5.090;2024-01-06T01:49:24;5.10;99.90
22940;DHT22;11636;52.086;5.090;2024-01-06T01:51:52;5.10;99.90
22940;DHT22;11636;52.086;5.090;2024-01-06T01:54:20;5.10;99.90
22940;DHT22;11636;52.086;5.090;2024-01-06T01:56:54;5.10;99.90
22940;DHT22;11636;52.086;5.090;2024-01-06T01:59:21;5.10;99.90
22940;DHT22;11636;52.086;5.090;2024-01-06T02:01:54;5.10;99.90
22940;DHT22;11636;52.086;5.090;2024-01-06T02:04:20;5.10;99.90
22940;DHT22;11636;52.086;5.090;2024-01-06T02:06:54;5.10;99.90
22940;DHT22;11636;52.086;5.090;2024-01-06T02:09:20;5.10;99.90
22940;DHT22;11636;52.086;5.090;2024-01-06T02:11:49;5.10;99.90
22940;DHT22;11636;52.086;5.090;2024-01-06T02:14:23;5.00;99.90
22940;DHT22;11636;52.086;5.090;2024-01-06T02:16:56;5.00;99.90
22940;DHT22;11636;52.086;5.090;2024-01-06T02:19:29;5.00;99.90
22940;DHT22;11636;52.086;5.090;2024-01-06T02:21:56;5.00;99.90
22940;DHT22;11636;52.086;5.090;2024-01-06T02:24:29;5.00;99.90
22940;DHT22;11636;52.086;5.090;2024-01-06T02:26:56;5.00;99.90
22940;DHT22;11636;52.086;5.090;2024-01-06T02:29:29;5.00;99.90
22940;DHT22;11636;52.086;5.090;2024-01-06T02:31:55;5.00;99.90
22940;DHT22;11636;52.086;5.090;2024-01-06T02:34:29;5.00;99.90
22940;DHT22;11636;52.086;5.090;2024-01-06T02:36:55;5.00;99.90
22940;DHT22;11636;52.086;5.090;2024-01-06T02:39:22;5.00;99.90
22940;DHT22;11636;52.086;5.090;2024-01-06T02:41:57;5.00;99.90
22940;DHT22;11636;52.086;5.090;2024-01-06T02:44:23;4.90;99.90
22940;DHT22;11636;52.086;5.090;2024-01-06T02:46:57;5.00;99.90
22940;DHT22;11636;52.086;5.090;2024-01-06T02:49:23;5.00;99.90
22940;DHT22;11636;52.086;5.090;2024-01-06T02:51:57;4.90;99.90
22940;DHT22;11636;52.086;5.090;2024-01-06T02:54:24;5.00;99.90
22940;DHT22;11636;52.086;5.090;2024-01-06T02:56:57;5.00;99.90
22940;DHT22;11636;52.086;5.090;2024-01-06T02:59:30;4.90;99.90
22940;DHT22;11636;52.086;5.090;2024-01-06T03:01:57;4.90;99.90
22940;DHT22;11636;52.086;5.090;2024-01-06T03:04:30;4.90;99.90
22940;DHT22;11636;52.086;5.090;2024-01-06T03:06:57;4.90;99.90
22940;DHT22;11636;52.086;5.090;2024-01-06T03:09:31;4.90;99.90
22940;DHT22;11636;52.086;5.090;2024-01-06T03:11:58;4.90;99.90
22940;DHT22;11636;52.086;5.090;2024-01-06T03:14:31;4.90;99.90
22940;DHT22;11636;52.086;5.090;2024-01-06T03:17:04;4.90;99.90
22940;DHT22;11636;52.086;5.090;2024-01-06T03:19:39;4.90;99.90
22940;DHT22;11636;52.086;5.090;2024-01-06T03:22:06;4.90;99.90
22940;DHT22;11636;52.086;5.090;2024-01-06T03:24:40;4.90;99.90
22940;DHT22;11636;52.086;5.090;2024-01-06T03:27:07;4.90;99.90
22940;DHT22;11636;52.086;5.090;2024-01-06T03:29:42;4.90;99.90
22940;DHT22;11636;52.086;5.090;2024-01-06T03:32:09;4.90;99.90
22940;DHT22;11636;52.086;5.090;2024-01-06T03:34:42;4.90;99.90
22940;DHT22;11636;52.086;5.090;2024-01-06T03:37:09;4.90;99.90
22940;DHT22;11636;52.086;5.090;2024-01-06T03:39:43;4.90;99.90
22940;DHT22;11636;52.086;5.090;2024-01-06T03:42:16;4.90;99.90
22940;DHT22;11636;52.086;5.090;2024-01-06T03:44:50;4.80;99.90
22940;DHT22;11636;52.086;5.090;2024-01-06T03:47:23;4.90;99.90
22940;DHT22;11636;52.086;5.090;2024-01-06T03:49:56;4.90;99.90
22940;DHT22;11636;52.086;5.090;2024-01-06T03:52:29;4.90;99.90
22940;DHT22;11636;52.086;5.090;2024-01-06T03:54:56;4.80;99.90
22940;DHT22;11636;52.086;5.090;2024-01-06T03:57:29;4.80;99.90
22940;DHT22;11636;52.086;5.090;2024-01-06T03:59:55;4.80;99.90
22940;DHT22;11636;52.086;5.090;2024-01-06T04:02:29;4.90;99.90
22940;DHT22;11636;52.086;5.090;2024-01-06T04:04:56;4.90;99.90
22940;DHT22;11636;52.086;5.090;2024-01-06T04:07:22;4.90;99.90
22940;DHT22;11636;52.086;5.090;2024-01-06T04:09:56;4.90;99.90
22940;DHT22;11636;52.086;5.090;2024-01-06T04:12:29;4.90;99.90
22940;DHT22;11636;52.086;5.090;2024-01-06T04:15:02;4.80;99.90
22940;DHT22;11636;52.086;5.090;2024-01-06T04:17:30;4.80;99.90
22940;DHT22;11636;52.086;5.090;2024-01-06T04:20:03;4.80;99.90
22940;DHT22;11636;52.086;5.090;2024-01-06T04:22:37;4.80;99.90
22940;DHT22;11636;52.086;5.090;2024-01-06T04:25:10;4.80;99.90
22940;DHT22;11636;52.086;5.090;2024-01-06T04:27:43;4.70;99.90
22940;DHT22;11636;52.086;5.090;2024-01-06T04:30:18;4.70;99.90
22940;DHT22;11636;52.086;5.090;2024-01-06T04:32:46;4.60;99.90
22940;DHT22;11636;52.086;5.090;2024-01-06T04:35:21;4.60;99.90
22940;DHT22;11636;52.086;5.090;2024-01-06T04:37:48;4.60;99.90
22940;DHT22;11636;52.086;5.090;2024-01-06T04:40:15;4.60;99.90
22940;DHT22;11636;52.086;5.090;2024-01-06T04:42:48;4.60;99.90
22940;DHT22;11636;52.086;5.090;2024-01-06T04:45:15;4.50;99.90
22940;DHT22;11636;52.086;5.090;2024-01-06T04:47:48;4.60;99.90
22940;DHT22;11636;52.086;5.090;2024-01-06T04:50:21;4.60;99.90
22940;DHT22;11636;52.086;5.090;2024-01-06T04:52:48;4.50;99.90
22940;DHT22;11636;52.086;5.090;2024-01-06T04:55:15;4.50;99.90
22940;DHT22;11636;52.086;5.090;2024-01-06T04:57:49;4.50;99.90
22940;DHT22;11636;52.086;5.090;2024-01-06T05:00:23;4.50;99.90
22940;DHT22;11636;52.086;5.090;2024-01-06T05:02:50;4.50;99.90
22940;DHT22;11636;52.086;5.090;2024-01-06T05:05:17;4.50;99.90
22940;DHT22;11636;52.086;5.090;2024-01-06T05:07:51;4.40;99.90
22940;DHT22;11636;52.086;5.090;2024-01-06T05:10:24;4.40;99.90
22940;DHT22;11636;52.086;5.090;2024-01-06T05:12:57;4.50;99.90
22940;DHT22;11636;52.086;5.090;2024-01-06T05:15:30;4.40;99.90
22940;DHT22;11636;52.086;5.090;2024-01-06T05:18:05;4.40;99.90
22940;DHT22;11636;52.086;5.090;2024-01-06T05:20:32;4.40;99.90
22940;DHT22;11636;52.086;5.090;2024-01-06T05:23:05;4.40;99.90
22940;DHT22;11636;52.086;5.090;2024-01-06T05:25:32;4.40;99.90
22940;DHT22;11636;52.086;5.090;2024-01-06T05:28:05;4.40;99.90
22940;DHT22;11636;52.086;5.090;2024-01-06T05:30:32;4.40;99.90
22940;DHT22;11636;52.086;5.090;2024-01-06T05:33:08;4.40;99.90
22940;DHT22;11636;52.086;5.090;2024-01-06T05:35:39;4.40;99.90
22940;DHT22;11636;52.086;5.090;2024-01-06T05:38:12;4.40;99.90
22940;DHT22;11636;52.086;5.090;2024-01-06T05:40:39;4.40;99.90
22940;DHT22;11636;52.086;5.090;2024-01-06T05:43:12;4.40;99.90
22940;DHT22;11636;52.086;5.090;2024-01-06T05:45:39;4.40;99.90
22940;DHT22;11636;52.086;5.090;2024-01-06T05:48:09;4.40;99.90
22940;DHT22;11636;52.086;5.090;2024-01-06T05:50:44;4.40;99.90
22940;DHT22;11636;52.086;5.090;2024-01-06T05:53:17;4.40;99.90
22940;DHT22;11636;52.086;5.090;2024-01-06T05:55:45;4.40;99.90
22940;DHT22;11636;52.086;5.090;2024-01-06T05:58:12;4.40;99.90
22940;DHT22;11636;52.086;5.090;2024-01-06T06:00:45;4.40;99.90
22940;DHT22;11636;52.086;5.090;2024-01-06T06:03:13;4.40;99.90
22940;DHT22;11636;52.086;5.090;2024-01-06T06:05:47;4.40;99.90
22940;DHT22;11636;52.086;5.090;2024-01-06T06:08:14;4.40;99.90
22940;DHT22;11636;52.086;5.090;2024-01-06T06:10:41;4.40;99.90
22940;DHT22;11636;52.086;5.090;2024-01-06T06:13:24;4.40;99.90
22940;DHT22;11636;52.086;5.090;2024-01-06T06:15:57;4.40;99.90
22940;DHT22;11636;52.086;5.090;2024-01-06T06:18:31;4.30;99.90
22940;DHT22;11636;52.086;5.090;2024-01-06T06:20:59;4.30;99.90
22940;DHT22;11636;52.086;5.090;2024-01-06T06:23:33;4.30;99.90
22940;DHT22;11636;52.086;5.090;2024-01-06T06:26:05;4.40;99.90
22940;DHT22;11636;52.086;5.090;2024-01-06T06:28:39;4.30;99.90
22940;DHT22;11636;52.086;5.090;2024-01-06T06:31:07;4.30;99.90
22940;DHT22;11636;52.086;5.090;2024-01-06T06:33:34;4.30;99.90
22940;DHT22;11636;52.086;5.090;2024-01-06T06:36:07;4.40;99.90
22940;DHT22;11636;52.086;5.090;2024-01-06T06:38:41;4.40;99.90
22940;DHT22;11636;52.086;5.090;2024-01-06T06:41:08;4.40;99.90
22940;DHT22;11636;52.086;5.090;2024-01-06T06:43:41;4.40;99.90
22940;DHT22;11636;52.086;5.090;2024-01-06T06:46:08;4.40;99.90
22940;DHT22;11636;52.086;5.090;2024-01-06T06:48:35;4.40;99.90
22940;DHT22;11636;52.086;5.090;2024-01-06T06:51:09;4.40;99.90
22940;DHT22;11636;52.086;5.090;2024-01-06T06:53:37;4.40;99.90
22940;DHT22;11636;52.086;5.090;2024-01-06T06:56:04;4.40;99.90
22940;DHT22;11636;52.086;5.090;2024-01-06T06:58:37;4.40;99.90
22940;DHT22;11636;52.086;5.090;2024-01-06T07:01:10;4.40;99.90
22940;DHT22;11636;52.086;5.090;2024-01-06T07:03:44;4.40;99.90
22940;DHT22;11636;52.086;5.090;2024-01-06T07:06:12;4.40;99.90
22940;DHT22;11636;52.086;5.090;2024-01-06T07:08:39;4.40;99.90
22940;DHT22;11636;52.086;5.090;2024-01-06T07:11:12;4.40;99.90
22940;DHT22;11636;52.086;5.090;2024-01-06T07:13:41;4.30;99.90
22940;DHT22;11636;52.086;5.090;2024-01-06T07:16:08;4.30;99.90
22940;DHT22;11636;52.086;5.090;2024-01-06T07:18:45;4.30;99.90
22940;DHT22;11636;52.086;5.090;2024-01-06T07:21:13;4.30;99.90
22940;DHT22;11636;52.086;5.090;2024-01-06T07:23:40;4.30;99.90
22940;DHT22;11636;52.086;5.090;2024-01-06T07:26:13;4.30;99.90
22940;DHT22;11636;52.086;5.090;2024-01-06T07:28:46;4.30;99.90
22940;DHT22;11636;52.086;5.090;2024-01-06T07:31:14;4.30;99.90
22940;DHT22;11636;52.086;5.090;2024-01-06T07:33:41;4.30;99.90
22940;DHT22;11636;52.086;5.090;2024-01-06T07:36:14;4.30;99.90
22940;DHT22;11636;52.086;5.090;2024-01-06T07:38:42;4.20;99.90
22940;DHT22;11636;52.086;5.090;2024-01-06T07:41:15;4.20;99.90
22940;DHT22;11636;52.086;5.090;2024-01-06T07:43:42;4.20;99.90
22940;DHT22;11636;52.086;5.090;2024-01-06T07:46:15;4.20;99.90
22940;DHT22;11636;52.086;5.090;2024-01-06T07:48:49;4.30;99.90
22940;DHT22;11636;52.086;5.090;2024-01-06T07:51:22;4.30;99.90
22940;DHT22;11636;52.086;5.090;2024-01-06T07:53:49;4.30;99.90
22940;DHT22;11636;52.086;5.090;2024-01-06T07:56:22;4.30;99.90
22940;DHT22;11636;52.086;5.090;2024-01-06T07:58:49;4.20;99.90
22940;DHT22;11636;52.086;5.090;2024-01-06T08:01:16;4.30;99.90
22940;DHT22;11636;52.086;5.090;2024-01-06T08:03:49;4.30;99.90
22940;DHT22;11636;52.086;5.090;2024-01-06T08:06:23;4.30;99.90
22940;DHT22;11636;52.086;5.090;2024-01-06T08:08:52;4.30;99.90
22940;DHT22;11636;52.086;5.090;2024-01-06T08:11:18;4.30;99.90
22940;DHT22;11636;52.086;5.090;2024-01-06T08:13:52;4.30;99.90
22940;DHT22;11636;52.086;5.090;2024-01-06T08:16:19;4.30;99.90
22940;DHT22;11636;52.086;5.090;2024-01-06T08:18:53;4.30;99.90
22940;DHT22;11636;52.086;5.090;2024-01-06T08:21:26;4.30;99.90
22940;DHT22;11636;52.086;5.090;2024-01-06T08:23:53;4.30;99.90
22940;DHT22;11636;52.086;5.090;2024-01-06T08:26:26;4.30;99.90
22940;DHT22;11636;52.086;5.090;2024-01-06T08:28:53;4.30;99.90
22940;DHT22;11636;52.086;5.090;2024-01-06T08:31:26;4.30;99.90
22940;DHT22;11636;52.086;5.090;2024-01-06T08:33:59;4.30;99.90
22940;DHT22;11636;52.086;5.090;2024-01-06T08:36:26;4.40;99.90
22940;DHT22;11636;52.086;5.090;2024-01-06T08:39:00;4.40;99.90
22940;DHT22;11636;52.086;5.090;2024-01-06T08:41:27;4.40;99.90
22940;DHT22;11636;52.086;5.090;2024-01-06T08:43:54;4.40;99.90
22940;DHT22;11636;52.086;5.090;2024-01-06T08:46:27;4.40;99.90
22940;DHT22;11636;52.086;5.090;2024-01-06T08:48:54;4.30;99.90
22940;DHT22;11636;52.086;5.090;2024-01-06T08:51:27;4.30;99.90
22940;DHT22;11636;52.086;5.090;2024-01-06T08:53:54;4.40;99.90
22940;DHT22;11636;52.086;5.090;2024-01-06T08:56:27;4.40;99.90
22940;DHT22;11636;52.086;5.090;2024-01-06T08:58:54;4.50;99.90
22940;DHT22;11636;52.086;5.090;2024-01-06T09:01:27;4.50;99.90
22940;DHT22;11636;52.086;5.090;2024-01-06T09:03:54;4.60;99.90
22940;DHT22;11636;52.086;5.090;2024-01-06T09:06:27;4.60;99.90
22940;DHT22;11636;52.086;5.090;2024-01-06T09:08:54;4.70;99.90
22940;DHT22;11636;52.086;5.090;2024-01-06T09:11:27;4.70;99.90
22940;DHT22;11636;52.086;5.090;2024-01-06T09:13:54;4.70;99.90
22940;DHT22;11636;52.086;5.090;2024-01-06T09:16:21;4.80;99.90
22940;DHT22;11636;52.086;5.090;2024-01-06T09:18:54;4.80;99.90
22940;DHT22;11636;52.086;5.090;2024-01-06T09:21:21;4.80;99.90
22940;DHT22;11636;52.086;5.090;2024-01-06T09:23:54;4.80;99.90
22940;DHT22;11636;52.086;5.090;2024-01-06T09:26:21;4.80;99.90
22940;DHT22;11636;52.086;5.090;2024-01-06T09:28:54;4.90;99.90
22940;DHT22;11636;52.086;5.090;2024-01-06T09:31:21;5.00;99.90
22940;DHT22;11636;52.086;5.090;2024-01-06T09:33:54;5.00;99.90
22940;DHT22;11636;52.086;5.090;2024-01-06T09:36:21;5.00;99.90
22940;DHT22;11636;52.086;5.090;2024-01-06T09:38:48;5.00;99.90
22940;DHT22;11636;52.086;5.090;2024-01-06T09:41:22;4.90;99.90
22940;DHT22;11636;52.086;5.090;2024-01-06T09:43:49;4.90;99.90
22940;DHT22;11636;52.086;5.090;2024-01-06T09:46:26;4.80;99.90
22940;DHT22;11636;52.086;5.090;2024-01-06T09:48:54;4.80;99.90
22940;DHT22;11636;52.086;5.090;2024-01-06T09:51:22;4.80;99.90
22940;DHT22;11636;52.086;5.090;2024-01-06T09:53:58;4.80;99.90
22940;DHT22;11636;52.086;5.090;2024-01-06T09:56:27;4.80;99.90
22940;DHT22;11636;52.086;5.090;2024-01-06T09:59:01;4.70;99.90
22940;DHT22;11636;52.086;5.090;2024-01-06T10:01:28;4.70;99.90
22940;DHT22;11636;52.086;5.090;2024-01-06T10:04:01;4.70;99.90
22940;DHT22;11636;52.086;5.090;2024-01-06T10:06:29;4.60;99.90
22940;DHT22;11636;52.086;5.090;2024-01-06T10:09:03;4.60;99.90
22940;DHT22;11636;52.086;5.090;2024-01-06T10:11:31;4.60;99.90
22940;DHT22;11636;52.086;5.090;2024-01-06T10:14:04;4.50;99.90
22940;DHT22;11636;52.086;5.090;2024-01-06T10:16:31;4.50;99.90
22940;DHT22;11636;52.086;5.090;2024-01-06T10:19:00;4.60;99.90
22940;DHT22;11636;52.086;5.090;2024-01-06T10:21:35;4.60;99.90
22940;DHT22;11636;52.086;5.090;2024-01-06T10:24:01;4.60;99.90
22940;DHT22;11636;52.086;5.090;2024-01-06T10:26:34;4.60;99.90
22940;DHT22;11636;52.086;5.090;2024-01-06T10:29:01;4.60;99.90
22940;DHT22;11636;52.086;5.090;2024-01-06T10:31:35;4.60;99.90
22940;DHT22;11636;52.086;5.090;2024-01-06T10:34:04;4.60;99.90
22940;DHT22;11636;52.086;5.090;2024-01-06T10:36:31;4.60;99.90
22940;DHT22;11636;52.086;5.090;2024-01-06T10:39:05;4.60;99.90
22940;DHT22;11636;52.086;5.090;2024-01-06T10:41:34;4.60;99.90
22940;DHT22;11636;52.086;5.090;2024-01-06T10:44:09;4.60;99.90
22940;DHT22;11636;52.086;5.090;2024-01-06T10:46:38;4.60;99.90
22940;DHT22;11636;52.086;5.090;2024-01-06T10:49:12;4.60;99.90
22940;DHT22;11636;52.086;5.090;2024-01-06T10:51:39;4.60;99.90
22940;DHT22;11636;52.086;5.090;2024-01-06T10:54:14;4.60;99.90
22940;DHT22;11636;52.086;5.090;2024-01-06T10:56:42;4.60;99.90
22940;DHT22;11636;52.086;5.090;2024-01-06T10:59:18;4.60;99.90
22940;DHT22;11636;52.086;5.090;2024-01-06T11:02:04;4.60;99.90
22940;DHT22;11636;52.086;5.090;2024-01-06T11:04:39;4.60;99.90
22940;DHT22;11636;52.086;5.090;2024-01-06T11:07:17;4.60;99.90
22940;DHT22;11636;52.086;5.090;2024-01-06T11:12:32;4.60;99.90
22940;DHT22;11636;52.086;5.090;2024-01-06T11:15:43;4.60;99.90
22940;DHT22;11636;52.086;5.090;2024-01-06T11:18:36;4.70;99.90
22940;DHT22;11636;52.086;5.090;2024-01-06T11:21:23;4.70;99.90
22940;DHT22;11636;52.086;5.090;2024-01-06T11:24:18;4.70;99.90
22940;DHT22;11636;52.086;5.090;2024-01-06T11:26:56;4.70;99.90
22940;DHT22;11636;52.086;5.090;2024-01-06T11:29:23;4.70;99.90
22940;DHT22;11636;52.086;5.090;2024-01-06T11:35:15;4.70;99.90
22940;DHT22;11636;52.086;5.090;2024-01-06T11:42:58;4.70;99.90
22940;DHT22;11636;52.086;5.090;2024-01-06T11:45:26;4.70;99.90
22940;DHT22;11636;52.086;5.090;2024-01-06T11:48:05;4.60;99.90
22940;DHT22;11636;52.086;5.090;2024-01-06T11:50:36;4.60;99.90
22940;DHT22;11636;52.086;5.090;2024-01-06T11:53:16;4.60;99.90
22940;DHT22;11636;52.086;5.090;2024-01-06T11:55:43;4.60;99.90
22940;DHT22;11636;52.086;5.090;2024-01-06T11:58:17;4.60;99.90
22940;DHT22;11636;52.086;5.090;2024-01-06T12:00:44;4.70;99.90
22940;DHT22;11636;52.086;5.090;2024-01-06T12:03:15;4.60;99.90
22940;DHT22;11636;52.086;5.090;2024-01-06T12:06:02;4.60;99.90
22940;DHT22;11636;52.086;5.090;2024-01-06T12:08:39;4.60;99.90
22940;DHT22;11636;52.086;5.090;2024-01-06T12:11:06;4.60;99.90
22940;DHT22;11636;52.086;5.090;2024-01-06T12:13:34;4.60;99.90
22940;DHT22;11636;52.086;5.090;2024-01-06T12:16:06;4.70;99.90
22940;DHT22;11636;52.086;5.090;2024-01-06T12:18:34;4.60;99.90
22940;DHT22;11636;52.086;5.090;2024-01-06T12:21:07;4.60;99.90
22940;DHT22;11636;52.086;5.090;2024-01-06T12:23:40;4.70;99.90
22940;DHT22;11636;52.086;5.090;2024-01-06T12:26:06;4.70;99.90
22940;DHT22;11636;52.086;5.090;2024-01-06T12:28:40;4.70;99.90
22940;DHT22;11636;52.086;5.090;2024-01-06T12:31:09;4.70;99.90
22940;DHT22;11636;52.086;5.090;2024-01-06T12:33:42;4.70;99.90
22940;DHT22;11636;52.086;5.090;2024-01-06T12:36:15;4.70;99.90
22940;DHT22;11636;52.086;5.090;2024-01-06T12:38:52;4.70;99.90
22940;DHT22;11636;52.086;5.090;2024-01-06T12:41:25;4.70;99.90
22940;DHT22;11636;52.086;5.090;2024-01-06T12:43:54;4.70;99.90
22940;DHT22;11636;52.086;5.090;2024-01-06T12:46:27;4.70;99.90
22940;DHT22;11636;52.086;5.090;2024-01-06T12:48:54;4.70;99.90
22940;DHT22;11636;52.086;5.090;2024-01-06T12:51:21;4.70;99.90
22940;DHT22;11636;52.086;5.090;2024-01-06T12:53:55;4.70;99.90
22940;DHT22;11636;52.086;5.090;2024-01-06T12:56:28;4.70;99.90
22940;DHT22;11636;52.086;5.090;2024-01-06T12:58:54;4.70;99.90
22940;DHT22;11636;52.086;5.090;2024-01-06T13:01:28;4.60;99.90
22940;DHT22;11636;52.086;5.090;2024-01-06T13:03:55;4.60;99.90
22940;DHT22;11636;52.086;5.090;2024-01-06T13:06:28;4.60;99.90
22940;DHT22;11636;52.086;5.090;2024-01-06T13:08:55;4.70;99.90
22940;DHT22;11636;52.086;5.090;2024-01-06T13:11:22;4.70;99.90
22940;DHT22;11636;52.086;5.090;2024-01-06T13:13:56;4.70;99.90
22940;DHT22;11636;52.086;5.090;2024-01-06T13:16:22;4.70;99.90
22940;DHT22;11636;52.086;5.090;2024-01-06T13:18:56;4.60;99.90
22940;DHT22;11636;52.086;5.090;2024-01-06T13:21:23;4.60;99.90
22940;DHT22;11636;52.086;5.090;2024-01-06T13:23:57;4.60;99.90
22940;DHT22;11636;52.086;5.090;2024-01-06T13:26:27;4.60;99.90
22940;DHT22;11636;52.086;5.090;2024-01-06T13:29:01;4.60;99.90
22940;DHT22;11636;52.086;5.090;2024-01-06T13:31:29;4.50;99.90
22940;DHT22;11636;52.086;5.090;2024-01-06T13:34:04;4.50;99.90
22940;DHT22;11636;52.086;5.090;2024-01-06T13:36:39;4.50;99.90
22940;DHT22;11636;52.086;5.090;2024-01-06T13:39:06;4.50;99.90
22940;DHT22;11636;52.086;5.090;2024-01-06T13:41:33;4.50;99.90
22940;DHT22;11636;52.086;5.090;2024-01-06T13:44:07;4.40;99.90
22940;DHT22;11636;52.086;5.090;2024-01-06T13:46:33;4.40;99.90
22940;DHT22;11636;52.086;5.090;2024-01-06T13:49:00;4.40;99.90
22940;DHT22;11636;52.086;5.090;2024-01-06T13:51:35;4.40;99.90
22940;DHT22;11636;52.086;5.090;2024-01-06T13:54:05;4.40;99.90
22940;DHT22;11636;52.086;5.090;2024-01-06T13:56:32;4.40;99.90
22940;DHT22;11636;52.086;5.090;2024-01-06T13:59:05;4.40;99.90
22940;DHT22;11636;52.086;5.090;2024-01-06T14:01:32;4.40;99.90
22940;DHT22;11636;52.086;5.090;2024-01-06T14:03:59;4.40;99.90
22940;DHT22;11636;52.086;5.090;2024-01-06T14:06:33;4.40;99.90
22940;DHT22;11636;52.086;5.090;2024-01-06T14:09:07;4.30;99.90
22940;DHT22;11636;52.086;5.090;2024-01-06T14:11:34;4.30;99.90
22940;DHT22;11636;52.086;5.090;2024-01-06T14:14:07;4.30;99.90
22940;DHT22;11636;52.086;5.090;2024-01-06T14:16:34;4.30;99.90
22940;DHT22;11636;52.086;5.090;2024-01-06T14:19:08;4.30;99.90
22940;DHT22;11636;52.086;5.090;2024-01-06T14:21:35;4.20;99.90
22940;DHT22;11636;52.086;5.090;2024-01-06T14:24:08;4.20;99.90
22940;DHT22;11636;52.086;5.090;2024-01-06T14:26:35;4.20;99.90
22940;DHT22;11636;52.086;5.090;2024-01-06T14:29:02;4.20;99.90
22940;DHT22;11636;52.086;5.090;2024-01-06T14:31:36;4.10;99.90
22940;DHT22;11636;52.086;5.090;2024-01-06T14:34:03;4.10;99.90
22940;DHT22;11636;52.086;5.090;2024-01-06T14:36:36;4.10;99.90
22940;DHT22;11636;52.086;5.090;2024-01-06T14:39:03;4.10;99.90
22940;DHT22;11636;52.086;5.090;2024-01-06T14:41:42;4.00;99.90
22940;DHT22;11636;52.086;5.090;2024-01-06T14:44:16;3.90;99.90
22940;DHT22;11636;52.086;5.090;2024-01-06T14:46:44;3.90;99.90
22940;DHT22;11636;52.086;5.090;2024-01-06T14:49:18;3.90;99.90
22940;DHT22;11636;52.086;5.090;2024-01-06T14:51:51;3.90;99.90
22940;DHT22;11636;52.086;5.090;2024-01-06T14:54:18;3.90;99.90
22940;DHT22;11636;52.086;5.090;2024-01-06T14:56:51;3.80;99.90
22940;DHT22;11636;52.086;5.090;2024-01-06T14:59:20;3.80;99.90
22940;DHT22;11636;52.086;5.090;2024-01-06T15:01:53;3.80;99.90
22940;DHT22;11636;52.086;5.090;2024-01-06T15:04:20;3.80;99.90
22940;DHT22;11636;52.086;5.090;2024-01-06T15:06:56;3.80;99.90
22940;DHT22;11636;52.086;5.090;2024-01-06T15:09:23;3.80;99.90
22940;DHT22;11636;52.086;5.090;2024-01-06T15:11:58;3.70;99.90
22940;DHT22;11636;52.086;5.090;2024-01-06T15:14:31;3.70;99.90
22940;DHT22;11636;52.086;5.090;2024-01-06T15:17:04;3.70;99.90
22940;DHT22;11636;52.086;5.090;2024-01-06T15:19:31;3.80;99.90
22940;DHT22;11636;52.086;5.090;2024-01-06T15:22:00;3.80;99.90
22940;DHT22;11636;52.086;5.090;2024-01-06T15:24:33;3.80;99.90
22940;DHT22;11636;52.086;5.090;2024-01-06T15:27:00;3.70;99.90
22940;DHT22;11636;52.086;5.090;2024-01-06T15:29:33;3.80;99.90
22940;DHT22;11636;52.086;5.090;2024-01-06T15:32:00;3.80;99.90
22940;DHT22;11636;52.086;5.090;2024-01-06T15:34:34;3.80;99.90
22940;DHT22;11636;52.086;5.090;2024-01-06T15:37:00;3.80;99.90
22940;DHT22;11636;52.086;5.090;2024-01-06T15:39:34;3.80;99.90
22940;DHT22;11636;52.086;5.090;2024-01-06T15:42:07;3.80;99.90
22940;DHT22;11636;52.086;5.090;2024-01-06T15:44:35;3.80;99.90
22940;DHT22;11636;52.086;5.090;2024-01-06T15:47:09;3.80;99.90
22940;DHT22;11636;52.086;5.090;2024-01-06T15:49:36;3.80;99.90
22940;DHT22;11636;52.086;5.090;2024-01-06T15:52:09;3.80;99.90
22940;DHT22;11636;52.086;5.090;2024-01-06T15:54:36;3.90;99.90
22940;DHT22;11636;52.086;5.090;2024-01-06T15:57:09;3.80;99.90
22940;DHT22;11636;52.086;5.090;2024-01-06T15:59:36;3.90;99.90
22940;DHT22;11636;52.086;5.090;2024-01-06T16:02:09;3.80;99.90
22940;DHT22;11636;52.086;5.090;2024-01-06T16:04:36;3.80;99.90
22940;DHT22;11636;52.086;5.090;2024-01-06T16:07:09;3.80;99.90
22940;DHT22;11636;52.086;5.090;2024-01-06T16:09:36;3.80;99.90
22940;DHT22;11636;52.086;5.090;2024-01-06T16:12:09;3.80;99.90
22940;DHT22;11636;52.086;5.090;2024-01-06T16:14:43;3.80;99.90
22940;DHT22;11636;52.086;5.090;2024-01-06T16:17:10;3.80;99.90
22940;DHT22;11636;52.086;5.090;2024-01-06T16:19:37;3.80;99.90